This is the latest recevied weather packets stored in our database for station/object SP3VBV-2. If no packets are shown the sender has not sent any weather packets the latest 10 day(s).
| Time | Temp. | Humidity | Pressure | Rain* | Wind** | Luminosity | Snow |
|---|---|---|---|---|---|---|---|
| 1777780319 | 11.67° C | 59% | 1017.1 hPa | - | - | - | - |
| 1777779720 | 11.67° C | 59% | 1017.1 hPa | - | - | - | - |
| 1777779118 | 11.67° C | 59% | 1017.1 hPa | - | - | - | - |
| 1777778524 | 11.67° C | 59% | 1017.2 hPa | - | - | - | - |
| 1777777918 | 11.67° C | 59% | 1017.1 hPa | - | - | - | - |
| 1777777318 | 11.67° C | 59% | 1017.2 hPa | - | - | - | - |
| 1777776719 | 11.67° C | 59% | 1017.3 hPa | - | - | - | - |
| 1777776119 | 11.67° C | 61% | 1017.2 hPa | - | - | - | - |
| 1777775519 | 11.67° C | 62% | 1017.3 hPa | - | - | - | - |
| 1777774918 | 11.67° C | 61% | 1017.3 hPa | - | - | - | - |
| 1777774318 | 11.11° C | 62% | 1017.5 hPa | - | - | - | - |
| 1777773718 | 11.11° C | 64% | 1017.4 hPa | - | - | - | - |
| 1777773119 | 11.67° C | 64% | 1017.6 hPa | - | - | - | - |
| 1777772518 | 11.11° C | 65% | 1017.6 hPa | - | - | - | - |
| 1777771918 | 10.56° C | 67% | 1017.6 hPa | - | - | - | - |
| 1777771318 | 10.56° C | 67% | 1017.7 hPa | - | - | - | - |
| 1777770719 | 10° C | 68% | 1017.8 hPa | - | - | - | - |
| 1777770118 | 10.56° C | 66% | 1017.9 hPa | - | - | - | - |
| 1777769519 | 10.56° C | 64% | 1018 hPa | - | - | - | - |
| 1777768919 | 11.11° C | 61% | 1017.9 hPa | - | - | - | - |
| 1777768318 | 13.89° C | 51% | 1017.9 hPa | - | - | - | - |
| 1777768091 | 13.89° C | 49% | 1017.7 hPa | - | - | - | - |
| 1777767711 | 14.44° C | 50% | 1017.8 hPa | - | - | - | - |
| 1777767111 | 14.44° C | 48% | 1017.9 hPa | - | - | - | - |
| 1777766511 | 14.44° C | 48% | 1017.8 hPa | - | - | - | - |
* Rain since midnight (hover to see other rain measurements)
** Current wind speed in m/s (hover to see current wind gust speed)